Time;durP1;ratioP1;P1;durP2;ratioP2;P2;SDS_P1;SDS_P2;PMS_P1;PMS_P2;Temp;Humidity;BMP_temperature;BMP_pressure;BME280_temperature;BME280_humidity;BME280_pressure;Samples;Min_cycle;Max_cycle;Signal;HPM_P1;HPM_P2
2022/08/18 00:01:05;;;;;;;9.10;5.68;;;15.60;99.90;;;;;;5052650;28;20037;-61
2022/08/18 00:03:31;;;;;;;6.85;5.70;;;15.60;99.90;;;;;;5052751;28;20526;-61
2022/08/18 00:06:18;;;;;;;10.30;6.40;;;15.50;99.90;;;;;;5052627;28;20082;-61
2022/08/18 00:08:45;;;;;;;7.25;5.10;;;15.40;99.90;;;;;;5052773;28;20059;-61
2022/08/18 00:11:12;;;;;;;;;;;15.40;99.90;;;;;;5052541;28;20044;-62
2022/08/18 00:13:39;;;;;;;7.40;6.40;;;15.30;99.90;;;;;;5052657;28;20021;-63
2022/08/18 00:16:05;;;;;;;;;;;15.20;99.90;;;;;;5052942;28;20033;-62
2022/08/18 00:18:32;;;;;;;6.25;5.65;;;15.10;99.90;;;;;;5052115;28;19924;-62
2022/08/18 00:21:01;;;;;;;;;;;15.10;99.90;;;;;;5053253;28;20119;-62
2022/08/18 00:23:28;;;;;;;7.13;6.03;;;15.00;99.90;;;;;;5046901;28;20369;-62
2022/08/18 00:25:56;;;;;;;8.52;6.15;;;15.00;99.90;;;;;;5031735;28;20049;-62
2022/08/18 00:28:25;;;;;;;7.25;6.15;;;14.90;99.90;;;;;;5036525;28;20053;-63
2022/08/18 00:30:51;;;;;;;8.05;6.60;;;14.90;99.90;;;;;;5037301;28;20037;-61
2022/08/18 00:33:20;;;;;;;10.15;6.50;;;14.80;99.90;;;;;;5041528;28;20040;-62
2022/08/18 00:35:48;;;;;;;9.38;6.85;;;14.80;99.90;;;;;;5057072;28;20044;-63
2022/08/18 00:38:14;;;;;;;10.98;6.13;;;14.70;99.90;;;;;;5057355;28;20812;-62
2022/08/18 00:40:52;;;;;;;7.97;6.22;;;14.70;99.90;;;;;;5056892;28;20140;-61
2022/08/18 00:43:33;;;;;;;8.95;6.53;;;14.70;99.90;;;;;;5057220;28;20037;-62
2022/08/18 00:46:00;;;;;;;9.52;7.13;;;14.70;99.90;;;;;;5055142;28;20040;-62
2022/08/18 00:48:28;;;;;;;8.18;6.88;;;14.60;99.90;;;;;;5057463;28;20045;-62
2022/08/18 00:50:56;;;;;;;;;;;14.60;99.90;;;;;;5057458;28;20048;-62
2022/08/18 00:53:33;;;;;;;6.68;6.00;;;14.60;99.90;;;;;;5057028;28;20503;-63
2022/08/18 00:56:07;;;;;;;9.15;6.57;;;14.50;99.90;;;;;;5056894;28;20044;-61
2022/08/18 00:58:41;;;;;;;11.00;6.38;;;14.50;99.90;;;;;;5057277;28;20048;-62
2022/08/18 01:01:11;;;;;;;10.93;7.05;;;14.50;99.90;;;;;;5057066;28;20052;-61
2022/08/18 01:03:41;;;;;;;9.05;7.13;;;14.50;99.90;;;;;;5055302;28;20633;-62
2022/08/18 01:06:22;;;;;;;10.98;7.03;;;14.40;99.90;;;;;;5057111;28;20094;-61
2022/08/18 01:08:49;;;;;;;8.98;6.72;;;14.40;99.90;;;;;;5056351;28;20063;-61
2022/08/18 01:11:16;;;;;;;10.30;7.35;;;14.40;99.90;;;;;;5056991;28;20059;-61
2022/08/18 01:13:43;;;;;;;;;;;14.40;99.90;;;;;;5056702;28;20049;-61
2022/08/18 01:21:51;;;;;;;8.35;6.28;;;14.40;99.90;;;;;;5056659;28;20832;-61
2022/08/18 01:25:58;;;;;;;9.57;5.95;;;14.40;99.90;;;;;;5052770;28;20044;-61
2022/08/18 01:27:17;;;;;;;8.23;6.18;;;14.40;99.90;;;;;;5034165;28;20103;-61
2022/08/18 01:29:46;;;;;;;10.88;7.20;;;14.30;99.90;;;;;;5035304;28;20072;-61
2022/08/18 01:32:18;;;;;;;8.20;7.18;;;14.30;99.90;;;;;;5035715;28;20695;-61
2022/08/18 01:34:50;;;;;;;7.93;7.10;;;14.30;99.90;;;;;;5051185;28;20048;-62
2022/08/18 01:37:21;;;;;;;8.65;7.43;;;14.30;99.90;;;;;;5053258;28;20508;-61
2022/08/18 01:39:47;;;;;;;10.35;6.72;;;14.30;99.90;;;;;;5054684;28;20495;-60
2022/08/18 01:42:36;;;;;;;10.95;7.82;;;14.30;99.90;;;;;;5054809;28;20183;-61
2022/08/18 01:45:06;;;;;;;9.15;7.43;;;14.30;99.90;;;;;;5054782;28;20048;-61
2022/08/18 01:47:35;;;;;;;8.27;7.35;;;14.30;99.90;;;;;;5054482;28;20123;-61
2022/08/18 01:50:16;;;;;;;7.07;6.38;;;14.30;99.90;;;;;;5054742;28;20130;-61
2022/08/18 01:52:43;;;;;;;8.48;7.00;;;14.40;99.90;;;;;;5054621;28;20074;-61
2022/08/18 01:55:09;;;;;;;7.68;6.82;;;14.40;99.90;;;;;;5055132;28;20056;-61
2022/08/18 01:57:43;;;;;;;6.72;6.07;;;14.40;99.90;;;;;;5054759;28;20040;-62
2022/08/18 02:00:16;;;;;;;7.72;6.57;;;14.40;99.90;;;;;;5055044;28;20059;-61
2022/08/18 02:02:43;;;;;;;9.50;7.95;;;14.50;99.90;;;;;;5054690;28;20044;-61
2022/08/18 02:05:30;;;;;;;15.57;7.20;;;14.50;99.90;;;;;;5054219;28;20045;-62
2022/08/18 02:07:57;;;;;;;9.43;7.60;;;14.50;99.90;;;;;;5053004;28;20711;-62
2022/08/18 02:10:24;;;;;;;7.50;6.70;;;14.60;99.90;;;;;;5054124;28;20149;-60
2022/08/18 02:12:51;;;;;;;7.00;5.75;;;14.60;99.90;;;;;;5054713;28;20037;-61
2022/08/18 02:15:17;;;;;;;9.18;5.75;;;14.70;99.90;;;;;;5053307;28;20040;-59
2022/08/18 02:17:44;;;;;;;;;;;14.70;99.90;;;;;;5055602;28;20062;-60
2022/08/18 02:20:14;;;;;;;6.03;5.47;;;14.80;99.90;;;;;;5054184;28;20014;-60
2022/08/18 02:22:42;;;;;;;5.45;4.95;;;14.80;99.90;;;;;;5054714;28;20465;-61
2022/08/18 02:25:10;;;;;;;7.53;6.35;;;14.80;99.90;;;;;;5052104;28;20052;-61
2022/08/18 02:27:37;;;;;;;6.38;5.78;;;14.80;99.90;;;;;;5034253;28;20044;-61
2022/08/18 02:30:07;;;;;;;6.00;5.05;;;14.80;99.90;;;;;;5032341;28;20041;-61
2022/08/18 02:32:34;;;;;;;9.80;7.40;;;14.90;99.90;;;;;;5034120;28;20044;-60
2022/08/18 02:35:07;;;;;;;9.98;6.55;;;14.90;99.90;;;;;;5053395;28;20110;-60
2022/08/18 02:37:39;;;;;;;8.02;5.90;;;14.90;99.90;;;;;;5053905;28;20141;-60
2022/08/18 02:40:11;;;;;;;7.88;5.82;;;14.90;99.90;;;;;;5054389;28;20048;-61
2022/08/18 02:42:43;;;;;;;7.65;6.05;;;14.90;99.90;;;;;;5054107;28;20044;-61
2022/08/18 02:45:12;;;;;;;5.93;5.00;;;14.90;99.90;;;;;;5055087;28;20106;-61
2022/08/18 02:47:39;;;;;;;5.80;5.22;;;14.90;99.90;;;;;;5054896;28;20048;-60
2022/08/18 02:50:05;;;;;;;;;;;14.90;99.90;;;;;;5055425;28;20106;-60
2022/08/18 02:52:33;;;;;;;7.38;6.63;;;14.90;99.90;;;;;;5054096;28;19931;-60
2022/08/18 02:55:01;;;;;;;6.10;5.25;;;14.90;99.90;;;;;;5052837;28;20068;-60
2022/08/18 02:57:29;;;;;;;7.50;6.80;;;14.90;99.90;;;;;;5054801;28;20041;-61
2022/08/18 02:59:56;;;;;;;8.82;5.90;;;15.00;99.90;;;;;;5054416;28;20044;-61
2022/08/18 03:02:25;;;;;;;7.00;6.30;;;15.00;99.90;;;;;;5049840;28;20072;-61
2022/08/18 03:04:52;;;;;;;8.30;6.10;;;15.00;99.90;;;;;;5032515;28;20122;-61
2022/08/18 03:07:19;;;;;;;;;;;14.90;99.90;;;;;;5035782;28;20048;-62
2022/08/18 03:09:46;;;;;;;9.20;6.68;;;14.90;99.90;;;;;;5052874;28;19924;-63
2022/08/18 03:12:12;;;;;;;;;;;14.90;99.90;;;;;;5055588;28;20545;-62
2022/08/18 03:14:39;;;;;;;7.63;5.53;;;14.90;99.90;;;;;;5052790;28;19932;-62
2022/08/18 03:17:07;;;;;;;;;;;14.90;99.90;;;;;;5055230;28;20579;-62
2022/08/18 03:19:34;;;;;;;6.65;5.95;;;14.90;99.90;;;;;;5054549;28;19931;-62
2022/08/18 03:22:02;;;;;;;5.13;4.63;;;14.90;99.90;;;;;;5054122;28;20067;-62
2022/08/18 03:24:30;;;;;;;5.85;5.35;;;15.00;99.90;;;;;;5054794;28;20537;-61
2022/08/18 03:27:00;;;;;;;6.00;5.40;;;15.00;99.90;;;;;;5045309;28;20053;-62
2022/08/18 03:29:28;;;;;;;6.95;5.22;;;15.00;99.90;;;;;;5036313;28;20049;-61
2022/08/18 03:32:00;;;;;;;5.82;5.32;;;15.00;99.90;;;;;;5033991;28;20041;-63
2022/08/18 03:34:27;;;;;;;9.13;6.20;;;15.00;99.90;;;;;;5049061;28;20502;-61
2022/08/18 03:36:54;;;;;;;8.45;6.38;;;15.00;99.90;;;;;;5054396;28;20037;-62
2022/08/18 03:39:26;;;;;;;;;;;15.00;99.90;;;;;;5054317;28;20045;-63
2022/08/18 03:41:54;;;;;;;8.23;6.55;;;15.00;99.90;;;;;;5054224;28;19924;-63
2022/08/18 03:44:29;;;;;;;9.50;5.93;;;15.00;99.90;;;;;;5052298;28;20045;-63
2022/08/18 03:46:56;;;;;;;7.63;5.90;;;15.00;99.90;;;;;;5054511;28;20052;-62
2022/08/18 03:49:23;;;;;;;8.63;6.05;;;15.00;99.90;;;;;;5053844;28;20145;-62
2022/08/18 03:51:50;;;;;;;5.72;5.07;;;14.90;99.90;;;;;;5054098;28;20438;-62
2022/08/18 03:54:17;;;;;;;;;;;14.90;99.90;;;;;;5054270;28;20072;-62
2022/08/18 03:56:46;;;;;;;6.78;5.90;;;14.90;99.90;;;;;;5054909;28;19928;-62
2022/08/18 03:59:16;;;;;;;6.75;5.97;;;14.90;99.90;;;;;;5054376;28;20788;-62
2022/08/18 04:01:45;;;;;;;8.93;6.30;;;14.90;99.90;;;;;;5054688;28;20050;-62
2022/08/18 04:04:16;;;;;;;6.68;5.32;;;14.90;99.90;;;;;;5058649;28;20133;-62
2022/08/18 04:06:55;;;;;;;6.25;5.65;;;14.90;99.90;;;;;;5057450;28;20052;-62
2022/08/18 04:09:24;;;;;;;8.57;5.57;;;14.90;99.90;;;;;;5056865;28;20045;-62
2022/08/18 04:11:51;;;;;;;7.00;5.47;;;15.00;99.90;;;;;;5055884;28;20052;-52
2022/08/18 04:14:23;;;;;;;7.30;5.50;;;15.00;99.90;;;;;;5057712;28;20052;-52
2022/08/18 04:16:50;;;;;;;6.00;5.40;;;15.00;99.90;;;;;;5057249;28;20106;-53
2022/08/18 04:19:17;;;;;;;;;;;15.00;99.90;;;;;;5058984;28;20044;-53
2022/08/18 04:21:55;;;;;;;11.80;6.05;;;15.00;99.90;;;;;;5057009;28;20547;-53
2022/08/18 04:24:22;;;;;;;9.13;6.53;;;15.10;99.90;;;;;;5057350;28;20047;-53
2022/08/18 04:26:50;;;;;;;9.27;6.60;;;15.10;99.90;;;;;;5057882;28;20041;-55
2022/08/18 04:29:19;;;;;;;10.80;7.25;;;15.10;99.90;;;;;;5050664;28;20099;-56
2022/08/18 04:31:49;;;;;;;7.00;6.30;;;15.00;99.90;;;;;;5038046;28;20078;-51
2022/08/18 04:34:16;;;;;;;7.60;6.82;;;15.00;99.90;;;;;;5051220;28;20040;-50
2022/08/18 04:36:43;;;;;;;10.65;6.95;;;15.10;99.90;;;;;;5056051;28;20060;-52
2022/08/18 04:39:11;;;;;;;;;;;15.00;99.90;;;;;;5057917;28;20052;-53
2022/08/18 04:41:41;;;;;;;8.35;6.63;;;15.00;99.90;;;;;;5057909;28;19928;-48
2022/08/18 04:44:10;;;;;;;7.75;6.93;;;15.00;99.90;;;;;;5057239;28;20596;-50
2022/08/18 04:46:50;;;;;;;9.32;7.20;;;15.00;99.90;;;;;;5058000;28;20052;-51
2022/08/18 04:49:19;;;;;;;9.15;6.80;;;14.90;99.90;;;;;;5057570;28;20056;-52
2022/08/18 04:54:54;;;;;;;10.13;6.78;;;14.90;99.90;;;;;;5044466;28;20055;-50
2022/08/18 04:57:21;;;;;;;8.63;6.50;;;14.90;99.90;;;;;;5056843;28;20632;-49
2022/08/18 04:59:50;;;;;;;6.93;6.22;;;14.90;99.90;;;;;;5057385;28;20037;-52
2022/08/18 05:02:19;;;;;;;7.72;6.78;;;14.90;99.90;;;;;;5057092;28;20048;-48
2022/08/18 05:04:46;;;;;;;13.23;7.45;;;14.90;99.90;;;;;;5057747;28;20706;-50
2022/08/18 05:07:16;;;;;;;9.32;6.45;;;14.90;99.90;;;;;;5056979;28;20045;-49
2022/08/18 05:09:43;;;;;;;10.00;7.50;;;14.90;99.90;;;;;;5055442;28;20051;-50
2022/08/18 05:12:12;;;;;;;11.30;9.13;;;14.90;99.90;;;;;;5056671;28;20075;-49
2022/08/18 05:14:41;;;;;;;10.80;8.70;;;14.90;99.90;;;;;;5056174;28;20469;-52
2022/08/18 05:17:07;;;;;;;8.98;7.88;;;14.90;99.90;;;;;;5056921;28;20106;-52
2022/08/18 05:19:34;;;;;;;;;;;14.90;99.90;;;;;;5057070;28;20544;-51
2022/08/18 05:22:09;;;;;;;7.10;6.28;;;14.90;99.90;;;;;;5057155;28;19925;-52
2022/08/18 05:24:38;;;;;;;8.07;6.70;;;14.90;99.90;;;;;;5053521;28;20131;-53
2022/08/18 05:27:06;;;;;;;12.57;8.20;;;14.90;99.90;;;;;;5056865;28;20117;-52
2022/08/18 05:29:36;;;;;;;11.32;7.32;;;14.90;99.90;;;;;;5041864;28;20063;-60
2022/08/18 05:32:13;;;;;;;14.63;8.10;;;14.90;99.90;;;;;;5048181;28;20051;-51
2022/08/18 05:35:08;;;;;;;7.72;6.93;;;14.90;99.90;;;;;;5045587;28;20044;-52
2022/08/18 05:37:50;;;;;;;9.13;6.90;;;15.00;99.90;;;;;;5054607;28;20066;-53
2022/08/18 05:40:21;;;;;;;10.50;8.05;;;15.00;99.90;;;;;;5056488;28;20049;-52
2022/08/18 05:42:48;;;;;;;12.05;7.72;;;15.00;99.90;;;;;;5056560;28;20044;-52
2022/08/18 05:45:17;;;;;;;11.48;9.30;;;15.10;99.90;;;;;;5056052;28;20115;-50
2022/08/18 05:47:44;;;;;;;11.73;10.10;;;15.10;99.90;;;;;;5054800;28;20052;-48
2022/08/18 05:50:16;;;;;;;13.85;9.52;;;15.20;99.90;;;;;;5056701;28;20126;-54
2022/08/18 05:52:50;;;;;;;10.73;9.10;;;15.20;99.90;;;;;;5054379;28;20051;-50
2022/08/18 05:58:30;;;;;;;11.05;9.95;;;15.20;99.90;;;;;;5055408;28;20055;-52
2022/08/18 06:01:17;;;;;;;11.35;8.55;;;15.20;99.90;;;;;;5056268;28;20045;-51
2022/08/18 06:03:56;;;;;;;12.80;10.77;;;15.20;99.90;;;;;;5055479;28;20147;-52
2022/08/18 06:06:28;;;;;;;15.02;11.57;;;15.30;99.90;;;;;;5054743;28;20045;-53
2022/08/18 06:09:06;;;;;;;12.30;10.63;;;15.30;99.90;;;;;;5037875;28;20605;-50
2022/08/18 06:11:33;;;;;;;12.70;10.63;;;15.30;99.90;;;;;;5055039;28;20048;-49
2022/08/18 06:14:00;;;;;;;13.32;10.73;;;15.30;99.90;;;;;;5055214;28;20052;-49
2022/08/18 06:16:52;;;;;;;11.73;10.57;;;15.20;99.90;;;;;;5055945;28;20442;-50
2022/08/18 06:19:31;;;;;;;11.82;10.57;;;15.30;99.90;;;;;;5053945;28;20102;-53
2022/08/18 06:22:17;;;;;;;13.88;11.85;;;15.30;99.90;;;;;;5054500;28;20560;-47
2022/08/18 06:25:12;;;;;;;15.52;11.95;;;15.30;99.90;;;;;;5054676;28;20774;-51
2022/08/18 06:27:54;;;;;;;15.90;12.23;;;15.20;99.90;;;;;;5055785;28;20047;-49
2022/08/18 06:31:03;;;;;;;13.93;12.43;;;15.20;99.90;;;;;;5046999;28;20049;-49
2022/08/18 06:33:42;;;;;;;13.38;10.82;;;15.20;99.90;;;;;;5036582;28;20053;-51
2022/08/18 06:36:29;;;;;;;13.45;11.35;;;15.20;99.90;;;;;;5050197;28;20606;-49
2022/08/18 06:39:00;;;;;;;12.60;11.25;;;15.20;99.90;;;;;;5055063;28;20070;-53
2022/08/18 06:41:47;;;;;;;13.27;11.43;;;15.20;99.90;;;;;;5054854;28;20036;-50
2022/08/18 06:44:36;;;;;;;15.45;13.65;;;15.20;99.90;;;;;;5055476;28;20441;-52
2022/08/18 06:47:18;;;;;;;12.38;10.90;;;15.20;99.90;;;;;;5053267;28;20084;-56
2022/08/18 06:50:07;;;;;;;14.75;12.55;;;15.20;99.90;;;;;;5055164;28;20119;-53
2022/08/18 06:52:49;;;;;;;14.45;12.95;;;15.10;99.90;;;;;;5054893;28;20040;-53
2022/08/18 06:55:29;;;;;;;13.80;12.30;;;15.10;99.90;;;;;;5053954;28;20608;-53
2022/08/18 06:58:04;;;;;;;15.45;13.32;;;15.20;99.90;;;;;;5054494;28;20098;-51
2022/08/18 07:00:34;;;;;;;11.95;10.57;;;15.20;99.90;;;;;;5055250;28;20052;-51
2022/08/18 07:03:06;;;;;;;23.00;12.80;;;15.20;99.90;;;;;;5053479;28;20675;-52
2022/08/18 07:05:35;;;;;;;14.98;13.38;;;15.20;99.90;;;;;;5054477;28;20190;-51
2022/08/18 07:08:21;;;;;;;12.95;11.32;;;15.30;99.90;;;;;;5037267;28;20075;-48
2022/08/18 07:10:50;;;;;;;16.35;12.35;;;15.30;99.90;;;;;;5053114;28;20464;-51
2022/08/18 07:13:25;;;;;;;13.30;11.43;;;15.40;99.90;;;;;;5052869;28;20048;-49
2022/08/18 07:15:55;;;;;;;12.95;11.57;;;15.40;99.90;;;;;;5031972;28;20082;-49
2022/08/18 07:18:28;;;;;;;14.93;13.32;;;15.50;99.90;;;;;;5034007;28;20719;-52
2022/08/18 07:20:58;;;;;;;18.15;13.40;;;15.50;99.90;;;;;;5052091;28;20901;-51
2022/08/18 07:23:38;;;;;;;15.73;12.55;;;15.60;99.90;;;;;;5053999;28;20131;-52
2022/08/18 07:26:17;;;;;;;14.55;12.15;;;15.70;99.90;;;;;;5033871;28;20504;-49
2022/08/18 07:28:47;;;;;;;14.27;11.35;;;15.80;99.90;;;;;;5034689;28;20045;-56
2022/08/18 07:31:18;;;;;;;12.45;11.10;;;15.80;99.90;;;;;;5045037;28;20047;-56
2022/08/18 07:34:12;;;;;;;12.85;11.55;;;15.90;99.90;;;;;;5047411;28;20067;-54
2022/08/18 07:36:46;;;;;;;13.05;11.15;;;15.90;99.90;;;;;;5052185;28;20045;-56
2022/08/18 07:39:30;;;;;;;12.95;11.20;;;16.00;99.90;;;;;;5054746;28;20040;-50
2022/08/18 07:42:09;;;;;;;11.93;10.60;;;16.00;99.90;;;;;;5053347;28;20044;-54
2022/08/18 07:44:39;;;;;;;15.90;11.88;;;16.20;99.90;;;;;;5053800;28;20082;-52
2022/08/18 07:47:17;;;;;;;13.27;11.57;;;16.30;99.90;;;;;;5054109;28;20059;-51
2022/08/18 07:49:46;;;;;;;12.68;10.50;;;16.40;99.90;;;;;;5053726;28;20060;-52
2022/08/18 07:52:43;;;;;;;10.25;9.20;;;16.60;99.90;;;;;;5053461;28;20044;-53
2022/08/18 07:55:34;;;;;;;11.98;9.05;;;16.80;99.90;;;;;;5053128;28;20034;-54
2022/08/18 07:58:33;;;;;;;10.88;9.77;;;17.00;99.90;;;;;;5053724;28;20685;-53
2022/08/18 08:01:45;;;;;;;10.13;8.88;;;17.40;99.90;;;;;;5053079;28;20047;-51
2022/08/18 08:04:15;;;;;;;11.57;9.15;;;17.70;99.90;;;;;;5029614;28;20052;-51
2022/08/18 08:07:19;;;;;;;9.90;8.43;;;17.90;99.90;;;;;;5053704;28;20547;-52
2022/08/18 08:10:00;;;;;;;10.75;8.32;;;17.90;99.90;;;;;;5052622;28;20052;-51
2022/08/18 08:12:42;;;;;;;11.65;8.32;;;18.00;99.90;;;;;;5051820;28;20051;-52
2022/08/18 08:15:21;;;;;;;9.30;8.23;;;18.00;99.90;;;;;;5051802;28;20048;-49
2022/08/18 08:18:14;;;;;;;10.02;7.55;;;18.10;99.90;;;;;;5051977;28;20049;-53
2022/08/18 08:20:53;;;;;;;8.75;7.60;;;18.20;99.90;;;;;;5051811;28;20565;-51
2022/08/18 08:23:31;;;;;;;9.63;8.23;;;18.40;99.90;;;;;;5051736;28;20446;-50
2022/08/18 08:26:28;;;;;;;11.15;8.10;;;18.40;99.90;;;;;;5051694;28;20048;-52
2022/08/18 08:29:08;;;;;;;9.18;7.82;;;18.40;99.90;;;;;;5051483;28;20212;-51
2022/08/18 08:32:02;;;;;;;11.40;8.50;;;18.40;99.90;;;;;;5048436;28;20106;-53
2022/08/18 08:34:44;;;;;;;9.48;7.75;;;18.40;99.90;;;;;;5039708;28;20044;-54
2022/08/18 08:37:22;;;;;;;8.88;6.80;;;18.40;99.90;;;;;;5053956;28;20078;-53
2022/08/18 08:39:56;;;;;;;8.23;7.10;;;18.50;99.90;;;;;;5053754;28;20048;-53
2022/08/18 08:42:46;;;;;;;9.80;6.05;;;18.50;99.90;;;;;;5053938;28;20114;-54
2022/08/18 08:45:19;;;;;;;5.75;5.25;;;18.50;99.90;;;;;;5053304;28;20106;-54
2022/08/18 08:47:54;;;;;;;6.50;5.90;;;18.60;99.90;;;;;;5055983;28;20044;-53
2022/08/18 08:50:40;;;;;;;7.38;6.57;;;18.60;99.90;;;;;;5055268;28;20056;-52
2022/08/18 08:53:11;;;;;;;7.43;6.47;;;18.60;99.90;;;;;;5055787;28;20125;-54
2022/08/18 08:55:49;;;;;;;7.78;5.68;;;18.70;99.90;;;;;;5056787;28;20051;-52
2022/08/18 08:58:41;;;;;;;8.57;6.32;;;18.90;99.90;;;;;;5057861;28;20044;-53
2022/08/18 09:01:22;;;;;;;9.15;6.00;;;19.10;99.90;;;;;;5056634;28;20040;-54
2022/08/18 09:04:00;;;;;;;5.68;5.18;;;19.10;99.90;;;;;;5056907;28;20045;-52
2022/08/18 09:06:42;;;;;;;9.52;5.97;;;19.10;99.90;;;;;;5056662;28;20078;-54
2022/08/18 09:09:41;;;;;;;6.28;5.55;;;19.20;99.90;;;;;;5056627;28;20056;-53
2022/08/18 09:12:35;;;;;;;6.93;5.38;;;19.20;99.90;;;;;;5032446;28;20218;-53
2022/08/18 09:15:44;;;;;;;5.28;4.78;;;19.20;99.90;;;;;;5056290;28;20051;-53
2022/08/18 09:18:33;;;;;;;5.90;4.82;;;19.30;99.90;;;;;;5056408;28;20047;-54
2022/08/18 09:21:17;;;;;;;6.15;5.13;;;19.30;99.90;;;;;;5056957;28;20039;-50
2022/08/18 09:23:49;;;;;;;5.25;4.75;;;19.40;99.90;;;;;;5056407;28;20040;-51
2022/08/18 09:27:04;;;;;;;5.13;4.25;;;19.40;99.90;;;;;;5057088;28;20036;-51
2022/08/18 09:29:37;;;;;;;5.35;4.72;;;19.40;99.90;;;;;;5054006;28;20060;-52
2022/08/18 09:32:19;;;;;;;5.60;4.95;;;19.50;99.90;;;;;;5054083;28;20049;-53
2022/08/18 09:35:18;;;;;;;7.63;5.68;;;19.60;99.90;;;;;;5041542;28;20044;-52
2022/08/18 09:44:08;;;;;;;6.07;4.82;;;19.90;99.90;;;;;;5056155;28;20052;-54
2022/08/18 09:46:57;;;;;;;;;;;20.10;99.90;;;;;;5056659;28;20102;-51
2022/08/18 09:49:24;;;;;;;5.20;4.32;;;20.20;99.90;;;;;;5055882;28;19974;-52
2022/08/18 09:52:20;;;;;;;6.50;5.80;;;20.30;99.90;;;;;;5054663;28;20051;-51
2022/08/18 09:55:30;;;;;;;7.95;6.93;;;20.30;99.90;;;;;;5054794;28;20070;-53
2022/08/18 09:58:20;;;;;;;7.95;7.13;;;20.40;99.90;;;;;;5055311;28;20884;-53
2022/08/18 10:01:33;;;;;;;7.53;6.72;;;20.50;99.90;;;;;;5052978;28;20040;-55
2022/08/18 10:04:14;;;;;;;10.98;7.90;;;20.50;99.90;;;;;;5054045;28;20151;-55
2022/08/18 10:06:46;;;;;;;7.40;6.70;;;20.40;99.90;;;;;;5055377;28;20072;-54
2022/08/18 10:09:23;;;;;;;9.40;8.27;;;20.30;99.90;;;;;;5055404;28;20076;-55
2022/08/18 10:12:09;;;;;;;10.70;9.60;;;20.20;99.90;;;;;;5038707;28;20500;-55
2022/08/18 10:15:13;;;;;;;10.50;7.88;;;20.20;99.90;;;;;;5052029;28;20106;-55
2022/08/18 10:18:23;;;;;;;11.68;10.48;;;20.10;99.90;;;;;;5054229;28;20032;-55
2022/08/18 10:21:27;;;;;;;11.43;10.23;;;20.00;99.90;;;;;;5054394;28;20048;-54
2022/08/18 10:24:09;;;;;;;11.90;8.68;;;20.00;99.90;;;;;;5036249;28;20678;-56
2022/08/18 10:26:56;;;;;;;10.18;8.90;;;20.00;99.90;;;;;;5054924;28;20501;-55
2022/08/18 10:29:22;;;;;;;10.07;9.07;;;19.90;99.90;;;;;;5055205;28;20040;-56
2022/08/18 10:31:58;;;;;;;12.88;9.18;;;19.90;99.90;;;;;;5055605;28;20468;-55
2022/08/18 10:34:51;;;;;;;8.35;7.35;;;19.80;99.90;;;;;;5051556;28;20147;-54
2022/08/18 10:37:21;;;;;;;11.43;9.68;;;19.80;99.90;;;;;;5054168;28;20055;-54
2022/08/18 10:40:08;;;;;;;12.02;10.82;;;19.90;99.90;;;;;;5054738;28;20052;-56
2022/08/18 10:43:09;;;;;;;10.55;9.13;;;19.90;99.90;;;;;;5055049;28;20098;-54
2022/08/18 10:45:56;;;;;;;11.43;9.20;;;20.00;99.90;;;;;;5054573;28;20072;-55
2022/08/18 10:48:56;;;;;;;8.70;7.82;;;20.10;99.90;;;;;;5053950;28;20036;-54
2022/08/18 10:51:35;;;;;;;11.00;9.55;;;20.20;99.90;;;;;;5054435;28;20464;-55
2022/08/18 10:54:37;;;;;;;9.60;8.40;;;20.20;99.90;;;;;;5055358;28;20066;-57
2022/08/18 10:57:59;;;;;;;13.20;9.20;;;20.30;99.90;;;;;;5054601;28;20106;-55
2022/08/18 11:00:53;;;;;;;12.98;9.65;;;20.30;99.90;;;;;;5053395;28;20099;-56
2022/08/18 11:03:30;;;;;;;10.10;8.48;;;20.30;99.90;;;;;;5054706;28;20157;-54
2022/08/18 11:06:23;;;;;;;9.73;8.68;;;20.30;99.90;;;;;;5053650;28;20045;-54
2022/08/18 11:08:57;;;;;;;10.32;9.23;;;20.40;99.90;;;;;;5052819;28;20048;-55
2022/08/18 11:11:40;;;;;;;14.38;11.45;;;20.40;99.90;;;;;;5054542;28;20406;-56
2022/08/18 11:14:33;;;;;;;13.50;10.35;;;20.40;99.90;;;;;;5042450;28;20052;-53
2022/08/18 11:17:23;;;;;;;11.57;8.57;;;20.50;99.90;;;;;;5054393;28;20049;-57
2022/08/18 11:19:53;;;;;;;12.55;9.98;;;20.50;99.90;;;;;;5053821;28;20044;-56
2022/08/18 11:22:29;;;;;;;11.75;8.77;;;20.50;99.90;;;;;;5054332;28;20056;-54
2022/08/18 11:25:00;;;;;;;8.32;7.20;;;20.50;99.90;;;;;;5053836;28;20071;-53
2022/08/18 11:27:36;;;;;;;10.10;8.82;;;20.50;99.90;;;;;;5054689;28;20044;-56
2022/08/18 11:30:08;;;;;;;15.10;10.00;;;20.60;99.90;;;;;;5053965;28;20127;-56
2022/08/18 11:32:40;;;;;;;8.38;7.15;;;20.70;99.90;;;;;;5054499;28;20653;-56
2022/08/18 11:35:34;;;;;;;7.50;5.90;;;20.70;99.90;;;;;;5047387;28;20108;-56
2022/08/18 11:38:03;;;;;;;15.02;7.35;;;20.80;99.90;;;;;;5034076;28;20050;-55
2022/08/18 11:40:37;;;;;;;9.65;6.82;;;20.90;99.90;;;;;;5032907;28;20049;-55
2022/08/18 11:43:31;;;;;;;7.50;6.70;;;20.90;99.90;;;;;;5033326;28;20068;-55
2022/08/18 11:46:25;;;;;;;10.88;6.20;;;20.90;99.90;;;;;;5032461;28;20134;-55
2022/08/18 11:49:32;;;;;;;7.75;6.53;;;20.90;99.90;;;;;;5034830;28;20687;-56
2022/08/18 11:52:05;;;;;;;;;;;20.80;99.90;;;;;;5034371;28;20037;-54
2022/08/18 11:54:39;;;;;;;9.93;6.70;;;20.80;99.90;;;;;;5065966;28;20513;-56
2022/08/18 11:57:30;;;;;;;8.73;7.78;;;20.80;99.90;;;;;;5032783;28;20527;-53
2022/08/18 11:59:57;;;;;;;7.57;6.82;;;20.80;99.90;;;;;;5034115;28;20036;-55
2022/08/18 12:02:26;;;;;;;9.35;7.15;;;20.80;99.90;;;;;;5034385;28;20120;-54
2022/08/18 12:05:02;;;;;;;6.47;5.55;;;20.90;99.90;;;;;;5033609;28;20049;-53
2022/08/18 12:07:41;;;;;;;11.75;7.22;;;21.00;99.90;;;;;;5034796;28;20920;-53
2022/08/18 12:10:29;;;;;;;6.85;5.90;;;21.00;99.90;;;;;;5053547;28;20040;-52
2022/08/18 12:12:58;;;;;;;10.93;7.50;;;21.00;99.90;;;;;;5053752;28;20045;-54
2022/08/18 12:15:33;;;;;;;6.93;6.18;;;21.00;99.90;;;;;;5053060;28;20636;-51
2022/08/18 12:18:16;;;;;;;7.10;5.97;;;21.00;99.90;;;;;;5053958;28;20416;-55
2022/08/18 12:20:57;;;;;;;7.45;5.38;;;20.90;99.90;;;;;;5053231;28;20758;-52
2022/08/18 12:23:24;;;;;;;6.13;5.18;;;20.90;99.90;;;;;;5056701;28;20877;-52
2022/08/18 12:25:51;;;;;;;7.22;4.88;;;20.90;99.90;;;;;;5049847;28;20052;-53
2022/08/18 12:28:21;;;;;;;6.07;5.47;;;20.90;99.90;;;;;;5044299;28;20053;-54
2022/08/18 12:30:54;;;;;;;5.85;5.32;;;20.90;99.90;;;;;;5055743;28;20562;-53
2022/08/18 12:33:41;;;;;;;5.53;5.03;;;20.80;99.90;;;;;;5056682;28;20652;-55
2022/08/18 12:36:28;;;;;;;12.82;7.10;;;20.80;99.90;;;;;;5060352;28;20582;-55
2022/08/18 12:38:56;;;;;;;5.57;5.07;;;20.70;99.90;;;;;;5036396;28;20743;-54
2022/08/18 12:41:23;;;;;;;5.75;5.15;;;20.60;99.90;;;;;;5035860;28;20047;-55
2022/08/18 12:43:52;;;;;;;5.65;4.60;;;20.60;99.90;;;;;;5035339;28;20107;-56
2022/08/18 12:46:26;;;;;;;5.35;4.85;;;20.50;99.90;;;;;;5037330;28;20118;-56
2022/08/18 12:48:52;;;;;;;7.10;5.38;;;20.50;99.90;;;;;;5036539;28;20072;-57
2022/08/18 12:51:20;;;;;;;5.03;4.40;;;20.40;99.90;;;;;;5037324;28;20045;-57
2022/08/18 12:53:56;;;;;;;5.57;4.78;;;20.40;99.90;;;;;;5039704;28;20643;-55
2022/08/18 12:56:47;;;;;;;8.20;5.90;;;20.30;99.90;;;;;;5035543;28;20088;-55
2022/08/18 12:59:15;;;;;;;10.80;8.38;;;20.30;99.90;;;;;;5035625;28;20048;-55
2022/08/18 13:01:43;;;;;;;8.80;7.90;;;20.20;99.90;;;;;;5035479;28;20044;-56
2022/08/18 13:04:10;;;;;;;11.60;8.32;;;20.20;99.90;;;;;;5035160;28;20523;-54
2022/08/18 13:06:47;;;;;;;9.05;7.53;;;20.10;99.90;;;;;;5036600;28;20045;-58
2022/08/18 13:09:32;;;;;;;8.88;6.95;;;20.10;99.90;;;;;;5051453;28;20048;-56
2022/08/18 13:12:18;;;;;;;9.35;6.72;;;20.00;99.90;;;;;;5042567;28;20412;-57
2022/08/18 13:14:46;;;;;;;9.25;8.27;;;20.00;99.90;;;;;;5056387;28;20036;-55
2022/08/18 13:17:14;;;;;;;9.32;8.43;;;20.00;99.90;;;;;;5056052;28;20040;-55
2022/08/18 13:20:05;;;;;;;9.90;8.90;;;20.00;99.90;;;;;;5055043;28;20044;-56
2022/08/18 13:22:33;;;;;;;9.75;7.75;;;19.90;99.90;;;;;;5055906;28;20362;-55
2022/08/18 13:25:01;;;;;;;7.75;6.97;;;19.90;99.90;;;;;;5055668;28;20124;-55
2022/08/18 13:27:30;;;;;;;10.30;6.57;;;19.90;99.90;;;;;;5056421;28;20131;-56
2022/08/18 13:30:09;;;;;;;8.55;6.47;;;19.90;99.90;;;;;;5056811;28;20040;-56
2022/08/18 13:32:55;;;;;;;7.60;6.80;;;19.80;99.90;;;;;;5055414;28;20127;-57
2022/08/18 13:35:27;;;;;;;9.88;8.05;;;19.80;99.90;;;;;;5055739;28;20573;-56
2022/08/18 13:38:02;;;;;;;10.32;8.20;;;19.80;99.90;;;;;;5043227;28;20052;-56
2022/08/18 13:40:47;;;;;;;7.43;6.82;;;19.80;99.90;;;;;;5035766;28;20045;-56
2022/08/18 13:43:16;;;;;;;9.07;8.00;;;19.80;99.90;;;;;;5036485;28;20267;-57
2022/08/18 13:45:45;;;;;;;9.57;8.25;;;19.70;99.90;;;;;;5035381;28;20949;-55
2022/08/18 13:48:18;;;;;;;7.63;6.93;;;19.70;99.90;;;;;;5035223;28;20044;-56
2022/08/18 13:50:46;;;;;;;11.25;10.05;;;19.60;99.90;;;;;;5036341;28;20045;-56